Time;durP1;ratioP1;P1;durP2;ratioP2;P2;SDS_P1;SDS_P2;PMS_P1;PMS_P2;Temp;Humidity;BMP_temperature;BMP_pressure;BME280_temperature;BME280_humidity;BME280_pressure;Samples;Min_cycle;Max_cycle;Signal;HPM_P1;HPM_P2
2022/10/29 00:00:37;;;;;;;13.57;2.45;;;14.20;99.90;;;;;;4997346;28;20047;-74
2022/10/29 00:03:03;;;;;;;10.48;3.65;;;14.20;99.90;;;;;;4977763;28;20046;-74
2022/10/29 00:05:29;;;;;;;15.13;2.97;;;14.20;99.90;;;;;;4978000;28;20484;-75
2022/10/29 00:07:55;;;;;;;12.20;2.83;;;14.10;99.90;;;;;;4985089;28;20037;-74
2022/10/29 00:10:20;;;;;;;10.05;3.13;;;14.10;99.90;;;;;;4975765;28;20061;-74
2022/10/29 00:12:46;;;;;;;11.18;3.17;;;14.10;99.90;;;;;;4976954;28;20046;-74
2022/10/29 00:15:12;;;;;;;12.88;2.85;;;14.10;99.90;;;;;;4994536;28;20408;-74
2022/10/29 00:17:38;;;;;;;15.25;3.45;;;14.10;99.90;;;;;;4977733;28;20046;-74
2022/10/29 00:20:04;;;;;;;11.10;3.17;;;14.10;99.90;;;;;;4993696;28;20045;-74
2022/10/29 00:22:30;;;;;;;12.48;4.00;;;14.10;99.90;;;;;;4978166;28;20046;-74
2022/10/29 00:24:55;;;;;;;14.35;3.97;;;14.10;99.90;;;;;;4976456;28;20392;-75
2022/10/29 00:27:21;;;;;;;18.00;2.90;;;14.10;99.90;;;;;;4976083;28;20042;-74
2022/10/29 00:29:46;;;;;;;15.10;3.13;;;14.10;99.90;;;;;;4988215;28;20054;-74
2022/10/29 00:32:12;;;;;;;13.30;3.65;;;14.10;99.90;;;;;;4976921;28;20060;-74
2022/10/29 00:34:38;;;;;;;8.43;3.03;;;14.00;99.90;;;;;;4983245;28;20047;-74
2022/10/29 00:37:05;;;;;;;14.27;4.10;;;14.10;99.90;;;;;;5004490;28;20357;-74
2022/10/29 00:39:32;;;;;;;10.65;3.03;;;14.00;99.90;;;;;;5002239;28;20444;-74
2022/10/29 00:41:58;;;;;;;12.65;3.90;;;14.00;99.90;;;;;;4994958;28;20507;-74
2022/10/29 00:44:28;;;;;;;17.15;4.93;;;14.00;99.90;;;;;;4977857;28;20133;-74
2022/10/29 00:47:16;;;;;;;9.27;3.38;;;14.00;99.90;;;;;;4991371;28;20041;-74
2022/10/29 00:49:44;;;;;;;13.93;3.90;;;14.00;99.90;;;;;;4995460;28;20057;-74
2022/10/29 00:52:10;;;;;;;14.07;3.53;;;14.00;99.90;;;;;;4979791;28;20057;-74
2022/10/29 00:54:40;;;;;;;9.85;3.65;;;14.00;99.90;;;;;;4991792;28;20144;-74
2022/10/29 00:57:15;;;;;;;14.63;3.47;;;14.00;99.90;;;;;;4997999;28;20494;-74
2022/10/29 00:59:43;;;;;;;15.85;3.10;;;13.90;99.90;;;;;;5000589;28;20042;-74
2022/10/29 01:02:09;;;;;;;11.10;3.20;;;13.90;99.90;;;;;;4982158;28;20488;-74
2022/10/29 01:04:36;;;;;;;17.77;4.18;;;13.90;99.90;;;;;;4975858;28;20090;-74
2022/10/29 01:07:02;;;;;;;13.40;2.90;;;13.90;99.90;;;;;;4978171;28;20489;-74
2022/10/29 01:09:28;;;;;;;;;;;13.90;99.90;;;;;;4992633;28;20506;-74
2022/10/29 01:11:53;;;;;;;10.90;2.85;;;13.90;99.90;;;;;;4998701;28;19917;-74
2022/10/29 01:14:44;;;;;;;14.97;3.47;;;13.80;99.90;;;;;;4978403;28;20034;-74
2022/10/29 01:17:42;;;;;;;10.35;3.90;;;13.90;99.90;;;;;;4977479;28;20283;-74
2022/10/29 01:20:43;;;;;;;17.13;3.75;;;13.80;99.90;;;;;;4975491;28;20137;-74
2022/10/29 01:23:41;;;;;;;21.88;5.45;;;13.80;99.90;;;;;;4960589;28;20145;-74
2022/10/29 01:26:15;;;;;;;16.48;3.70;;;13.80;99.90;;;;;;4993389;28;20112;-75
2022/10/29 01:28:47;;;;;;;12.02;3.80;;;13.80;99.90;;;;;;5000568;28;20140;-74
2022/10/29 01:31:21;;;;;;;22.02;4.93;;;13.80;99.90;;;;;;4980757;28;20048;-74
2022/10/29 01:34:00;;;;;;;15.57;4.28;;;13.80;99.90;;;;;;4967148;28;20734;-74
2022/10/29 01:36:47;;;;;;;11.75;4.70;;;13.90;99.90;;;;;;4984867;28;20049;-74
2022/10/29 01:39:23;;;;;;;15.70;4.43;;;13.80;99.90;;;;;;4981925;28;20041;-74
2022/10/29 01:41:54;;;;;;;11.60;4.57;;;13.90;99.90;;;;;;4995270;28;20484;-74
2022/10/29 01:44:35;;;;;;;14.65;4.68;;;13.90;99.90;;;;;;4979305;28;20034;-74
2022/10/29 01:47:03;;;;;;;17.42;5.50;;;13.90;99.90;;;;;;4993284;28;20050;-74
2022/10/29 01:49:42;;;;;;;22.98;4.68;;;13.80;99.90;;;;;;4980189;28;20046;-74
2022/10/29 01:52:11;;;;;;;16.42;4.88;;;13.90;99.90;;;;;;5003650;28;20040;-74
2022/10/29 01:54:42;;;;;;;16.10;5.43;;;13.80;99.90;;;;;;4999367;28;20058;-74
2022/10/29 01:57:27;;;;;;;16.13;4.82;;;13.80;99.90;;;;;;4979061;28;20176;-74
2022/10/29 01:59:56;;;;;;;11.15;4.35;;;13.80;99.90;;;;;;5001318;28;20096;-74
2022/10/29 02:02:53;;;;;;;8.05;3.90;;;13.80;99.90;;;;;;4996473;28;20562;-74
2022/10/29 02:05:40;;;;;;;16.53;4.07;;;13.80;99.90;;;;;;4976213;28;20033;-74
2022/10/29 02:08:12;;;;;;;11.23;4.65;;;13.80;99.90;;;;;;4978314;28;20046;-74
2022/10/29 02:10:52;;;;;;;12.07;4.20;;;13.80;99.90;;;;;;4997328;28;20061;-74
2022/10/29 02:13:24;;;;;;;14.48;3.97;;;13.70;99.90;;;;;;5004136;28;20094;-74
2022/10/29 02:15:53;;;;;;;11.20;4.22;;;13.70;99.90;;;;;;4987270;28;20048;-74
2022/10/29 02:18:19;;;;;;;13.02;3.80;;;13.80;99.90;;;;;;4978691;28;20042;-74
2022/10/29 02:20:45;;;;;;;13.15;4.43;;;13.80;99.90;;;;;;5001604;28;20496;-74
2022/10/29 02:23:12;;;;;;;9.23;4.15;;;13.70;99.90;;;;;;4983795;28;20492;-74
2022/10/29 02:25:37;;;;;;;11.50;4.70;;;13.70;99.90;;;;;;5007238;28;20034;-74
2022/10/29 02:28:03;;;;;;;15.88;3.70;;;13.70;99.90;;;;;;4995100;28;20053;-74
2022/10/29 02:30:29;;;;;;;11.18;3.65;;;13.70;99.90;;;;;;4980338;28;20957;-74
2022/10/29 02:32:55;;;;;;;14.80;3.70;;;13.70;99.90;;;;;;4978522;28;20049;-74
2022/10/29 02:35:20;;;;;;;13.40;3.20;;;13.70;99.90;;;;;;4980861;28;20379;-74
2022/10/29 02:37:46;;;;;;;8.65;2.97;;;13.60;99.90;;;;;;4972929;28;20165;-75
2022/10/29 02:40:12;;;;;;;16.08;3.65;;;13.60;99.90;;;;;;4999279;28;20305;-74
2022/10/29 02:42:38;;;;;;;8.18;3.22;;;13.60;99.90;;;;;;4991532;28;20046;-74
2022/10/29 02:45:04;;;;;;;8.48;3.38;;;13.60;99.90;;;;;;4974729;28;20082;-74
2022/10/29 02:47:30;;;;;;;10.95;3.80;;;13.60;99.90;;;;;;4966655;28;20121;-74
2022/10/29 02:49:55;;;;;;;9.05;3.17;;;13.60;99.90;;;;;;4973759;28;20141;-74
2022/10/29 02:52:21;;;;;;;13.10;3.35;;;13.60;99.90;;;;;;5011328;28;20141;-74
2022/10/29 02:54:47;;;;;;;7.40;3.45;;;13.60;99.90;;;;;;4991953;28;20527;-74
2022/10/29 02:59:40;;;;;;;15.15;3.75;;;13.60;99.90;;;;;;5004297;28;20046;-72
2022/10/29 03:02:06;;;;;;;14.77;3.85;;;13.60;99.90;;;;;;4986673;28;20507;-70
2022/10/29 03:04:31;;;;;;;8.48;3.88;;;13.60;99.90;;;;;;4963686;28;20038;-70
2022/10/29 03:06:57;;;;;;;15.63;3.90;;;13.60;99.90;;;;;;4987786;28;20037;-72
2022/10/29 03:09:23;;;;;;;8.57;3.20;;;13.60;99.90;;;;;;4984554;28;20313;-72
2022/10/29 03:11:48;;;;;;;14.05;2.75;;;13.60;99.90;;;;;;4986099;28;20057;-72
2022/10/29 03:14:14;;;;;;;17.23;2.90;;;13.50;99.90;;;;;;5000636;28;20042;-71
2022/10/29 03:16:40;;;;;;;11.98;3.13;;;13.50;99.90;;;;;;5000544;28;20500;-71
2022/10/29 03:19:05;;;;;;;6.97;3.10;;;13.60;99.90;;;;;;5006916;28;20031;-71
2022/10/29 03:21:31;;;;;;;5.60;2.70;;;13.50;99.90;;;;;;5000458;28;20042;-71
2022/10/29 03:23:57;;;;;;;9.38;3.15;;;13.50;99.90;;;;;;4998694;28;20132;-71
2022/10/29 03:26:22;;;;;;;9.57;3.20;;;13.50;99.90;;;;;;5008630;28;20474;-72
2022/10/29 03:28:48;;;;;;;14.27;3.47;;;13.50;99.90;;;;;;4980432;28;20397;-72
2022/10/29 03:31:14;;;;;;;11.02;3.25;;;13.50;99.90;;;;;;4977937;28;20034;-72
2022/10/29 03:33:39;;;;;;;13.07;3.00;;;13.50;99.90;;;;;;4998643;28;20121;-71
2022/10/29 03:36:06;;;;;;;7.30;2.90;;;13.50;99.90;;;;;;4999203;28;20304;-72
2022/10/29 03:38:32;;;;;;;9.40;3.22;;;13.50;99.90;;;;;;4980065;28;20695;-71
2022/10/29 03:40:58;;;;;;;9.02;2.70;;;13.50;99.90;;;;;;5000801;28;20038;-71
2022/10/29 03:43:24;;;;;;;12.13;3.30;;;13.50;99.90;;;;;;4983267;28;20046;-71
2022/10/29 03:45:54;;;;;;;15.07;3.78;;;13.50;99.90;;;;;;4984421;28;20373;-71
2022/10/29 03:48:20;;;;;;;9.95;3.25;;;13.50;99.90;;;;;;4993863;28;20517;-71
2022/10/29 03:50:54;;;;;;;8.20;2.97;;;13.50;99.90;;;;;;4987569;28;20065;-71
2022/10/29 03:53:19;;;;;;;10.60;3.45;;;13.50;99.90;;;;;;4983501;28;20097;-72
2022/10/29 03:55:48;;;;;;;6.05;3.17;;;13.50;99.90;;;;;;5007734;28;20082;-72
2022/10/29 03:58:14;;;;;;;6.70;3.05;;;13.50;99.90;;;;;;4979191;28;20052;-72
2022/10/29 04:00:39;;;;;;;10.37;2.67;;;13.50;99.90;;;;;;5001614;28;20033;-72
2022/10/29 04:03:05;;;;;;;13.10;2.80;;;13.50;99.90;;;;;;4978169;28;20396;-72
2022/10/29 04:05:30;;;;;;;14.82;3.35;;;13.50;99.90;;;;;;5007562;28;20567;-72
2022/10/29 04:07:56;;;;;;;10.17;3.07;;;13.50;99.90;;;;;;4994942;28;20480;-71
2022/10/29 04:10:22;;;;;;;9.30;3.13;;;13.50;99.90;;;;;;4992173;28;20326;-72
2022/10/29 04:12:47;;;;;;;7.43;3.55;;;13.50;99.90;;;;;;4990183;28;20046;-72
2022/10/29 04:15:13;;;;;;;14.00;3.83;;;13.50;99.90;;;;;;5011910;28;20467;-72
2022/10/29 04:17:39;;;;;;;11.13;3.80;;;13.50;99.90;;;;;;5009242;28;20515;-72
2022/10/29 04:20:05;;;;;;;14.77;3.90;;;13.50;99.90;;;;;;5006679;28;20050;-72
2022/10/29 04:22:30;;;;;;;11.13;3.72;;;13.50;99.90;;;;;;4992343;28;20057;-73
2022/10/29 04:24:56;;;;;;;8.20;3.50;;;13.50;99.90;;;;;;5003243;28;20038;-72
2022/10/29 04:27:22;;;;;;;10.87;3.73;;;13.50;99.90;;;;;;4987656;28;20486;-72
2022/10/29 04:29:47;;;;;;;8.82;3.50;;;13.50;99.90;;;;;;5005541;28;20100;-73
2022/10/29 04:32:13;;;;;;;22.07;4.83;;;13.50;99.90;;;;;;5005991;28;20057;-72
2022/10/29 04:34:39;;;;;;;10.75;3.63;;;13.50;99.90;;;;;;4984286;28;20064;-72
2022/10/29 04:37:04;;;;;;;11.90;3.90;;;13.50;99.90;;;;;;5001122;28;20053;-73
2022/10/29 04:39:30;;;;;;;8.23;3.83;;;13.50;99.90;;;;;;4985616;28;20460;-72
2022/10/29 04:41:56;;;;;;;9.63;4.43;;;13.50;99.90;;;;;;5004351;28;20287;-73
2022/10/29 04:44:21;;;;;;;13.18;3.80;;;13.50;99.90;;;;;;4986271;28;20049;-73
2022/10/29 04:46:47;;;;;;;11.67;4.10;;;13.50;99.90;;;;;;5006467;28;20088;-72
2022/10/29 04:49:12;;;;;;;10.30;3.90;;;13.40;99.90;;;;;;4993908;28;20322;-73
2022/10/29 04:51:38;;;;;;;11.73;3.97;;;13.50;99.90;;;;;;5009455;28;20053;-72
2022/10/29 04:54:04;;;;;;;9.70;4.03;;;13.40;99.90;;;;;;5005513;28;20054;-72
2022/10/29 04:56:29;;;;;;;13.15;4.72;;;13.40;99.90;;;;;;5001815;28;20283;-72
2022/10/29 04:58:55;;;;;;;10.98;3.33;;;13.40;99.90;;;;;;4991134;28;20072;-71
2022/10/29 05:01:21;;;;;;;13.65;4.55;;;13.40;99.90;;;;;;4992924;28;20054;-72
2022/10/29 05:03:46;;;;;;;10.20;4.20;;;13.40;99.90;;;;;;4988068;28;20080;-72
2022/10/29 05:06:12;;;;;;;9.30;4.00;;;13.40;99.90;;;;;;4990879;28;20336;-72
2022/10/29 05:08:38;;;;;;;12.95;3.70;;;13.40;99.90;;;;;;5011989;28;20045;-72
2022/10/29 05:11:04;;;;;;;10.40;4.03;;;13.40;99.90;;;;;;4988585;28;20048;-72
2022/10/29 05:13:31;;;;;;;14.35;4.60;;;13.40;99.90;;;;;;4991016;28;20247;-72
2022/10/29 05:15:56;;;;;;;9.57;3.92;;;13.40;99.90;;;;;;4985261;28;20068;-70
2022/10/29 05:18:22;;;;;;;9.20;4.15;;;13.40;99.90;;;;;;4987954;28;20449;-72
2022/10/29 05:20:52;;;;;;;8.27;3.53;;;13.40;99.90;;;;;;5004227;28;20046;-72
2022/10/29 05:23:17;;;;;;;9.00;3.90;;;13.40;99.90;;;;;;4981230;28;20050;-71
2022/10/29 05:25:47;;;;;;;9.43;3.83;;;13.40;99.90;;;;;;4991789;28;20447;-71
2022/10/29 05:28:17;;;;;;;8.05;3.78;;;13.40;99.90;;;;;;5007120;28;20050;-72
2022/10/29 05:30:44;;;;;;;9.07;4.20;;;13.40;99.90;;;;;;5008918;28;21105;-71
2022/10/29 05:33:13;;;;;;;9.55;3.63;;;13.40;99.90;;;;;;5006902;28;20034;-72
2022/10/29 05:35:38;;;;;;;13.85;3.92;;;13.40;99.90;;;;;;5003201;28;20038;-71
2022/10/29 05:38:04;;;;;;;12.13;3.97;;;13.40;99.90;;;;;;5008555;28;20081;-71
2022/10/29 05:40:30;;;;;;;10.80;3.67;;;13.30;99.90;;;;;;5003339;28;20042;-72
2022/10/29 05:42:56;;;;;;;10.70;4.05;;;13.40;99.90;;;;;;4985587;28;20281;-72
2022/10/29 05:45:24;;;;;;;8.50;3.58;;;13.40;99.90;;;;;;5004071;28;20057;-71
2022/10/29 05:47:57;;;;;;;11.52;3.10;;;13.40;99.90;;;;;;4990590;28;20037;-72
2022/10/29 05:50:23;;;;;;;9.20;3.17;;;13.40;99.90;;;;;;4996561;28;20058;-71
2022/10/29 05:52:59;;;;;;;12.32;4.00;;;13.30;99.90;;;;;;5005339;28;20076;-71
2022/10/29 05:55:26;;;;;;;7.47;3.22;;;13.40;99.90;;;;;;5003483;28;20053;-72
2022/10/29 05:57:59;;;;;;;8.38;3.58;;;13.30;99.90;;;;;;4998164;28;20280;-71
2022/10/29 06:00:27;;;;;;;6.75;3.08;;;13.30;99.90;;;;;;4987707;28;20046;-71
2022/10/29 06:02:52;;;;;;;10.93;3.63;;;13.40;99.90;;;;;;5002494;28;20124;-72
2022/10/29 06:05:18;;;;;;;6.70;3.20;;;13.40;99.90;;;;;;4990626;28;20120;-71
2022/10/29 06:07:44;;;;;;;10.30;4.18;;;13.30;99.90;;;;;;5011805;28;20048;-71
2022/10/29 06:10:10;;;;;;;8.83;3.30;;;13.30;99.90;;;;;;5000398;28;20049;-72
2022/10/29 06:12:38;;;;;;;10.00;3.55;;;13.40;99.90;;;;;;4991815;28;20375;-72
2022/10/29 06:15:05;;;;;;;9.13;3.05;;;13.30;99.90;;;;;;4983646;28;20541;-71
2022/10/29 06:17:30;;;;;;;8.18;3.00;;;13.40;99.90;;;;;;5007595;28;20130;-71
2022/10/29 06:19:56;;;;;;;12.93;3.40;;;13.40;99.90;;;;;;4969675;28;20567;-72
2022/10/29 06:22:21;;;;;;;7.47;3.25;;;13.40;99.90;;;;;;5001206;28;20054;-72
2022/10/29 06:24:47;;;;;;;9.23;3.80;;;13.40;99.90;;;;;;4989386;28;20581;-72
2022/10/29 06:27:13;;;;;;;10.98;3.55;;;13.40;99.90;;;;;;4985422;28;20046;-72
2022/10/29 06:29:39;;;;;;;9.80;3.30;;;13.40;99.90;;;;;;4986967;28;20049;-72
2022/10/29 06:32:04;;;;;;;12.03;3.93;;;13.40;99.90;;;;;;4981562;28;20045;-71
2022/10/29 06:34:30;;;;;;;11.93;4.07;;;13.50;99.90;;;;;;4986847;28;20054;-71
2022/10/29 06:36:56;;;;;;;10.90;3.90;;;13.50;99.90;;;;;;5013351;28;20314;-72
2022/10/29 06:39:21;;;;;;;14.10;4.20;;;13.50;99.90;;;;;;4985353;28;20302;-71
2022/10/29 06:41:47;;;;;;;9.40;4.37;;;13.50;99.90;;;;;;4987088;28;20303;-72
2022/10/29 06:44:13;;;;;;;9.97;3.87;;;13.50;99.90;;;;;;5007292;28;20438;-71
2022/10/29 06:46:40;;;;;;;15.80;3.50;;;13.50;99.90;;;;;;4983234;28;20507;-71
2022/10/29 06:49:06;;;;;;;10.65;3.75;;;13.50;99.90;;;;;;4995674;28;20509;-72
2022/10/29 06:51:31;;;;;;;14.88;4.93;;;13.50;99.90;;;;;;5011220;28;20125;-72
2022/10/29 06:53:57;;;;;;;10.03;3.97;;;13.50;99.90;;;;;;5002354;28;20033;-71
2022/10/29 06:56:22;;;;;;;19.70;4.07;;;13.60;99.90;;;;;;5003817;28;20616;-72
2022/10/29 06:58:48;;;;;;;12.00;3.83;;;13.60;99.90;;;;;;4990891;28;20133;-72
2022/10/29 07:01:14;;;;;;;15.93;4.63;;;13.60;99.90;;;;;;5005293;28;20394;-72
2022/10/29 07:03:39;;;;;;;12.60;4.40;;;13.60;99.90;;;;;;4991949;28;20045;-71
2022/10/29 07:06:05;;;;;;;18.77;5.72;;;13.70;99.90;;;;;;4981109;28;20642;-72
2022/10/29 07:08:32;;;;;;;21.35;5.00;;;13.60;99.90;;;;;;4981287;28;20281;-72
2022/10/29 07:10:57;;;;;;;14.00;3.92;;;13.70;99.90;;;;;;4998971;28;20076;-71
2022/10/29 07:13:23;;;;;;;19.52;4.32;;;13.60;99.90;;;;;;5004342;28;20522;-72
2022/10/29 07:15:49;;;;;;;11.43;4.25;;;13.70;99.90;;;;;;4985209;28;20041;-72
2022/10/29 07:18:15;;;;;;;18.67;5.00;;;13.70;99.90;;;;;;4989418;28;20047;-71
2022/10/29 07:20:42;;;;;;;19.25;5.15;;;13.70;99.90;;;;;;4998785;28;20284;-71
2022/10/29 07:23:09;;;;;;;11.68;4.50;;;13.70;99.90;;;;;;5001880;28;20060;-71
2022/10/29 07:25:36;;;;;;;17.13;5.00;;;13.70;99.90;;;;;;5004083;28;20042;-71
2022/10/29 07:28:05;;;;;;;18.00;6.18;;;13.70;99.90;;;;;;4999711;28;20059;-71
2022/10/29 07:30:31;;;;;;;15.32;5.68;;;13.70;99.90;;;;;;4980589;28;20121;-71
2022/10/29 07:32:57;;;;;;;14.50;5.47;;;13.70;99.90;;;;;;4981876;28;20050;-71
2022/10/29 07:35:23;;;;;;;20.85;5.35;;;13.70;99.90;;;;;;5005085;28;20053;-76
2022/10/29 07:37:48;;;;;;;18.03;6.87;;;13.80;99.90;;;;;;4984020;28;20497;-71
2022/10/29 07:40:14;;;;;;;17.53;6.50;;;13.70;99.90;;;;;;4999750;28;20626;-70
2022/10/29 07:42:40;;;;;;;17.88;7.07;;;13.70;99.90;;;;;;4973870;28;20053;-76
2022/10/29 07:45:06;;;;;;;17.55;6.32;;;13.70;99.90;;;;;;4998964;28;20042;-71
2022/10/29 07:47:34;;;;;;;16.23;6.53;;;13.80;99.90;;;;;;4984874;28;20096;-72
2022/10/29 07:50:00;;;;;;;19.05;8.00;;;13.80;99.90;;;;;;5005005;28;20507;-72
2022/10/29 07:52:26;;;;;;;19.65;7.00;;;13.80;99.90;;;;;;4992110;28;20080;-75
2022/10/29 07:54:54;;;;;;;17.57;6.70;;;13.70;99.90;;;;;;4986941;28;20042;-72
2022/10/29 07:57:21;;;;;;;14.70;6.60;;;13.70;99.90;;;;;;5001533;28;20046;-73
2022/10/29 07:59:47;;;;;;;18.08;7.43;;;13.80;99.90;;;;;;4971012;28;20077;-71
2022/10/29 08:02:12;;;;;;;18.70;7.72;;;13.80;99.90;;;;;;4981570;28;20467;-72
2022/10/29 08:04:38;;;;;;;20.93;7.87;;;13.80;99.90;;;;;;5013880;28;20046;-72
2022/10/29 08:07:03;;;;;;;18.00;7.07;;;13.80;99.90;;;;;;5003813;28;20287;-72
2022/10/29 08:09:29;;;;;;;18.95;7.40;;;13.80;99.90;;;;;;4983291;28;20042;-72
2022/10/29 08:11:55;;;;;;;17.20;7.47;;;13.80;99.90;;;;;;4980542;28;20050;-72
2022/10/29 08:14:20;;;;;;;21.40;8.13;;;13.80;99.90;;;;;;5003584;28;20276;-72
2022/10/29 08:16:46;;;;;;;20.98;6.78;;;13.80;99.90;;;;;;4978156;28;20326;-72
2022/10/29 08:19:12;;;;;;;19.08;8.70;;;13.90;99.90;;;;;;5001618;28;20881;-71
2022/10/29 08:21:38;;;;;;;18.00;7.82;;;13.90;99.90;;;;;;5008759;28;20701;-72
2022/10/29 08:24:06;;;;;;;14.65;8.32;;;13.90;99.90;;;;;;4975455;28;20492;-72
2022/10/29 08:26:32;;;;;;;18.42;8.05;;;13.90;99.90;;;;;;4984454;28;20038;-73
2022/10/29 08:28:57;;;;;;;20.80;8.57;;;13.90;99.90;;;;;;4998765;28;20550;-71
2022/10/29 08:31:23;;;;;;;20.27;8.80;;;14.00;99.90;;;;;;4994233;28;20038;-73
2022/10/29 08:33:49;;;;;;;18.60;9.68;;;14.00;99.90;;;;;;4996117;28;20619;-71
2022/10/29 08:36:15;;;;;;;17.52;9.23;;;14.10;99.90;;;;;;4997024;28;20121;-72
2022/10/29 08:38:41;;;;;;;17.75;8.52;;;14.00;99.90;;;;;;4981158;28;21537;-71
2022/10/29 08:41:43;;;;;;;15.70;8.45;;;14.10;99.90;;;;;;4979030;28;20430;-73
2022/10/29 08:44:08;;;;;;;18.58;8.57;;;14.00;99.90;;;;;;4985004;28;20551;-72
2022/10/29 08:46:52;;;;;;;13.95;8.18;;;14.10;99.90;;;;;;5008564;28;20041;-72
2022/10/29 08:49:29;;;;;;;15.38;7.78;;;14.10;99.90;;;;;;4998237;28;20515;-71
2022/10/29 08:52:01;;;;;;;;;;;14.10;99.90;;;;;;5002934;28;20041;-72
2022/10/29 08:54:29;;;;;;;17.92;8.10;;;14.20;99.90;;;;;;5009743;28;19925;-72
2022/10/29 08:56:58;;;;;;;18.98;8.63;;;14.20;99.90;;;;;;4995219;28;20053;-72
2022/10/29 08:59:30;;;;;;;16.65;7.47;;;14.30;99.90;;;;;;5028543;23;20077;-78
2022/10/29 09:01:56;;;;;;;18.05;8.45;;;14.30;99.90;;;;;;5025945;28;20044;-78
2022/10/29 09:04:33;;;;;;;16.35;7.82;;;14.30;99.90;;;;;;5025740;28;20042;-76
2022/10/29 09:07:20;;;;;;;18.23;7.57;;;14.30;99.90;;;;;;5019024;28;20033;-76
2022/10/29 09:09:52;;;;;;;;;;;14.40;99.90;;;;;;5019483;28;20068;-76
2022/10/29 09:12:40;;;;;;;19.55;8.57;;;14.40;99.90;;;;;;5026634;28;19947;-77
2022/10/29 09:15:39;;;;;;;13.15;7.15;;;14.50;99.90;;;;;;5025073;28;20053;-76
2022/10/29 09:18:21;;;;;;;15.93;7.05;;;14.50;99.90;;;;;;5005677;28;20107;-79
2022/10/29 09:21:21;;;;;;;17.02;8.20;;;14.60;99.90;;;;;;5022631;28;20040;-77
2022/10/29 09:24:08;;;;;;;17.10;7.15;;;14.60;99.90;;;;;;5021789;28;20046;-76
2022/10/29 09:26:43;;;;;;;20.38;8.35;;;14.60;99.90;;;;;;5024080;28;20065;-76
2022/10/29 09:29:29;;;;;;;12.73;6.75;;;14.60;99.90;;;;;;5024472;28;20045;-77
2022/10/29 09:32:24;;;;;;;22.08;8.65;;;14.70;99.90;;;;;;5019909;28;20215;-76
2022/10/29 09:34:54;;;;;;;18.60;8.02;;;14.70;99.90;;;;;;4981492;28;20053;-76
2022/10/29 09:37:33;;;;;;;18.17;7.90;;;14.70;99.90;;;;;;5023941;28;20049;-79
2022/10/29 09:40:03;;;;;;;16.83;8.02;;;14.70;99.90;;;;;;5020654;28;20402;-79
2022/10/29 09:42:38;;;;;;;15.60;6.60;;;14.80;99.90;;;;;;5022387;28;20517;-76
2022/10/29 09:45:08;;;;;;;16.92;8.07;;;14.90;99.90;;;;;;5009738;28;20451;-76
2022/10/29 09:47:58;;;;;;;19.92;7.78;;;14.90;99.90;;;;;;5026187;28;20069;-76
2022/10/29 09:50:38;;;;;;;17.63;7.80;;;15.00;99.90;;;;;;5023295;28;20056;-77
2022/10/29 09:53:04;;;;;;;18.73;7.85;;;15.00;99.90;;;;;;5020511;28;20041;-76
2022/10/29 09:56:00;;;;;;;14.55;7.95;;;15.10;99.90;;;;;;5023482;28;20521;-77
2022/10/29 09:58:27;;;;;;;14.52;7.57;;;15.20;99.90;;;;;;4983176;28;20104;-76
2022/10/29 10:00:55;;;;;;;14.82;6.88;;;15.30;99.90;;;;;;5001840;28;20128;-76
2022/10/29 10:03:28;;;;;;;16.55;7.85;;;15.30;99.90;;;;;;5022969;28;20053;-76
2022/10/29 10:06:03;;;;;;;19.92;7.65;;;15.30;99.90;;;;;;4993992;28;20092;-78
2022/10/29 10:08:33;;;;;;;18.60;7.93;;;15.40;99.90;;;;;;4990285;28;20741;-79
2022/10/29 10:11:17;;;;;;;18.98;7.90;;;15.50;99.90;;;;;;4988545;28;20585;-76
2022/10/29 10:14:16;;;;;;;17.35;7.68;;;15.50;99.90;;;;;;4987467;28;20594;-76
2022/10/29 10:16:42;;;;;;;14.38;6.93;;;15.60;99.90;;;;;;4972509;28;21778;-77
2022/10/29 10:19:23;;;;;;;16.70;7.38;;;15.70;99.90;;;;;;4987811;28;20045;-77
2022/10/29 10:22:17;;;;;;;16.58;7.57;;;15.80;99.90;;;;;;4991121;28;20076;-76
2022/10/29 10:24:42;;;;;;;15.50;7.82;;;15.80;99.90;;;;;;4987458;28;20515;-76
2022/10/29 10:27:30;;;;;;;14.77;7.43;;;16.00;99.90;;;;;;5021631;28;20053;-76
2022/10/29 10:30:16;;;;;;;12.38;7.05;;;16.00;99.90;;;;;;5015394;28;20124;-76
2022/10/29 10:32:42;;;;;;;14.90;7.22;;;16.10;99.90;;;;;;5021448;28;20110;-76
2022/10/29 10:35:29;;;;;;;18.92;8.02;;;16.10;99.90;;;;;;5016517;28;20041;-75
2022/10/29 10:37:58;;;;;;;20.77;7.10;;;16.20;99.90;;;;;;5004181;28;20050;-76
2022/10/29 10:40:24;;;;;;;15.23;6.80;;;16.30;99.90;;;;;;5014442;28;20050;-76
2022/10/29 10:42:52;;;;;;;17.00;6.28;;;16.30;99.90;;;;;;5011803;28;20108;-76
2022/10/29 10:45:32;;;;;;;15.90;7.72;;;16.40;99.90;;;;;;5018091;28;20041;-76
2022/10/29 10:47:59;;;;;;;18.92;7.65;;;16.50;99.90;;;;;;5014219;28;20037;-76
2022/10/29 10:50:35;;;;;;;12.88;6.35;;;16.50;99.90;;;;;;5006618;28;20402;-76
2022/10/29 10:53:21;;;;;;;15.70;6.30;;;16.60;99.90;;;;;;5017889;28;20053;-76
2022/10/29 10:55:48;;;;;;;14.88;6.43;;;16.60;99.90;;;;;;5021579;28;20056;-76
2022/10/29 10:58:25;;;;;;;11.95;6.65;;;16.70;99.90;;;;;;5013115;28;20053;-76
2022/10/29 11:01:00;;;;;;;15.43;6.18;;;16.70;99.90;;;;;;5021730;28;20059;-76
2022/10/29 11:03:39;;;;;;;15.57;6.70;;;16.80;99.90;;;;;;5010742;28;20049;-76
2022/10/29 11:06:19;;;;;;;12.35;6.25;;;16.90;99.90;;;;;;5012022;28;20042;-76
2022/10/29 11:08:53;;;;;;;13.38;6.60;;;16.90;99.90;;;;;;5028578;28;20037;-76
2022/10/29 11:11:31;;;;;;;13.68;6.03;;;16.90;99.90;;;;;;5024593;28;20037;-76
2022/10/29 11:14:05;;;;;;;14.02;7.20;;;17.00;99.90;;;;;;5012627;28;20032;-76
2022/10/29 11:16:40;;;;;;;13.38;5.72;;;17.10;99.90;;;;;;5021469;28;20603;-76
2022/10/29 11:19:16;;;;;;;16.27;6.40;;;17.10;99.90;;;;;;5006348;28;20453;-76
2022/10/29 11:21:47;;;;;;;11.80;5.72;;;17.20;99.90;;;;;;5031766;28;20236;-76
2022/10/29 11:24:22;;;;;;;13.18;6.55;;;17.20;99.90;;;;;;5023453;28;20037;-77
2022/10/29 11:27:09;;;;;;;11.48;5.05;;;17.20;99.90;;;;;;5013302;28;20107;-76
2022/10/29 11:29:56;;;;;;;13.00;5.30;;;17.30;99.90;;;;;;5014676;28;21233;-75
2022/10/29 11:32:45;;;;;;;13.45;5.82;;;17.30;99.90;;;;;;5020834;28;20096;-76
2022/10/29 11:35:17;;;;;;;13.85;5.55;;;17.40;99.90;;;;;;5016539;28;20064;-76
2022/10/29 11:37:59;;;;;;;9.82;4.70;;;17.40;99.90;;;;;;5019888;28;20771;-75
2022/10/29 11:41:03;;;;;;;12.43;5.93;;;17.50;99.90;;;;;;5019200;28;20566;-76
2022/10/29 11:43:33;;;;;;;13.73;5.07;;;17.50;99.90;;;;;;4987504;28;20049;-76
2022/10/29 11:46:20;;;;;;;11.25;5.57;;;17.50;99.90;;;;;;5017711;28;20059;-76
2022/10/29 11:49:09;;;;;;;14.95;6.22;;;17.50;99.90;;;;;;5024105;28;20043;-76
2022/10/29 11:51:58;;;;;;;14.68;6.28;;;17.50;99.90;;;;;;5028216;28;20736;-76
2022/10/29 11:55:11;;;;;;;12.95;5.85;;;17.50;99.90;;;;;;5017828;28;20037;-76
2022/10/29 11:58:08;;;;;;;16.40;6.22;;;17.50;99.90;;;;;;4996862;28;20041;-76
2022/10/29 12:01:00;;;;;;;13.95;6.32;;;17.40;99.90;;;;;;4992187;28;20136;-76
2022/10/29 12:03:55;;;;;;;12.65;6.22;;;17.50;99.90;;;;;;5031450;28;20076;-76
2022/10/29 12:06:39;;;;;;;14.45;6.40;;;17.50;99.90;;;;;;5015379;28;20451;-76
2022/10/29 12:09:36;;;;;;;12.82;5.78;;;17.60;99.90;;;;;;5017845;28;20045;-77
2022/10/29 12:12:07;;;;;;;14.43;6.20;;;17.60;99.90;;;;;;5019602;28;20041;-78
2022/10/29 12:14:39;;;;;;;15.75;7.10;;;17.70;99.90;;;;;;5014058;28;20359;-78
2022/10/29 12:17:20;;;;;;;15.82;5.72;;;17.70;99.90;;;;;;5014825;28;20042;-77
2022/10/29 12:20:10;;;;;;;13.18;6.47;;;17.80;99.90;;;;;;5020007;28;20107;-75
2022/10/29 12:22:57;;;;;;;12.82;5.35;;;17.90;99.90;;;;;;5019776;28;20094;-76
2022/10/29 12:25:44;;;;;;;16.33;6.25;;;18.00;99.90;;;;;;5022193;28;20038;-77
2022/10/29 12:28:31;;;;;;;;;;;18.30;99.90;;;;;;5028612;28;20037;-76
2022/10/29 12:30:57;;;;;;;12.98;5.88;;;18.50;99.90;;;;;;5024324;28;19971;-76
2022/10/29 12:33:35;;;;;;;13.57;5.57;;;18.60;99.90;;;;;;5023770;28;20132;-77
2022/10/29 12:36:10;;;;;;;14.32;6.57;;;18.80;99.90;;;;;;5024751;28;20433;-76
2022/10/29 12:38:58;;;;;;;15.15;5.82;;;19.00;99.90;;;;;;5024635;28;20620;-76
2022/10/29 12:41:44;;;;;;;12.80;6.05;;;19.10;99.90;;;;;;5022077;28;20041;-75
2022/10/29 12:44:29;;;;;;;14.60;5.32;;;19.20;99.90;;;;;;5015955;28;20091;-75
2022/10/29 12:47:03;;;;;;;12.88;5.95;;;19.20;99.90;;;;;;5030496;28;20049;-76
2022/10/29 12:49:51;;;;;;;15.30;6.22;;;19.20;99.90;;;;;;5008455;28;20448;-76
2022/10/29 12:52:28;;;;;;;10.20;5.65;;;19.10;99.90;;;;;;5019795;28;20045;-76
2022/10/29 12:54:55;;;;;;;9.98;5.15;;;19.20;99.90;;;;;;5029687;28;20049;-76
2022/10/29 12:57:29;;;;;;;11.10;5.63;;;19.20;99.90;;;;;;5021161;28;20578;-76
2022/10/29 12:59:55;;;;;;;10.48;5.70;;;19.20;99.90;;;;;;5000770;28;20034;-76
2022/10/29 13:02:40;;;;;;;;;;;19.30;99.90;;;;;;5020321;28;20045;-76
2022/10/29 13:05:06;;;;;;;14.10;6.10;;;19.30;99.90;;;;;;5019125;28;20007;-76